createdAt,value
2024-05-09T00:02:25.934Z,5.13
2024-05-09T00:05:27.589Z,4.18
2024-05-09T00:08:29.341Z,4.38
2024-05-09T00:11:31.061Z,4.45
2024-05-09T00:14:33.646Z,4.13
2024-05-09T00:17:35.368Z,3.80
2024-05-09T00:20:40.073Z,3.58
2024-05-09T00:23:42.785Z,3.47
2024-05-09T00:26:44.342Z,4.95
2024-05-09T00:29:45.852Z,5.50
2024-05-09T00:32:47.503Z,4.50
2024-05-09T00:35:49.133Z,4.68
2024-05-09T00:38:50.606Z,4.43
2024-05-09T00:41:53.264Z,4.65
2024-05-09T00:44:54.821Z,3.67
2024-05-09T00:47:56.602Z,3.93
2024-05-09T00:50:58.410Z,4.25
2024-05-09T00:53:59.906Z,3.83
2024-05-09T00:57:01.491Z,4.65
2024-05-09T01:00:04.740Z,4.45
2024-05-09T01:03:08.036Z,6.40
2024-05-09T01:06:10.047Z,3.33
2024-05-09T01:09:11.559Z,3.38
2024-05-09T01:12:13.310Z,3.63
2024-05-09T01:15:14.899Z,3.72
2024-05-09T01:18:16.613Z,3.07
2024-05-09T01:21:18.371Z,3.60
2024-05-09T01:24:20.049Z,4.10
2024-05-09T01:27:21.506Z,3.63
2024-05-09T01:30:31.264Z,3.55
2024-05-09T01:33:35.816Z,3.27
2024-05-09T01:36:37.385Z,4.15
2024-05-09T01:39:38.901Z,3.33
2024-05-09T01:42:40.408Z,4.05
2024-05-09T01:45:41.972Z,3.60
2024-05-09T01:48:43.600Z,3.27
2024-05-09T01:51:45.191Z,3.00
2024-05-09T01:54:46.670Z,3.67
2024-05-09T01:57:48.176Z,3.95
2024-05-09T02:00:49.711Z,3.90
2024-05-09T02:03:52.846Z,3.57
2024-05-09T02:06:54.565Z,3.53
2024-05-09T02:09:56.063Z,4.55
2024-05-09T02:12:57.532Z,4.78
2024-05-09T02:15:59.064Z,4.15
2024-05-09T02:19:00.653Z,3.67
2024-05-09T02:22:02.150Z,3.13
2024-05-09T02:25:03.660Z,3.50
2024-05-09T02:28:05.099Z,3.17
2024-05-09T02:31:06.630Z,3.30
2024-05-09T02:34:08.168Z,4.93
2024-05-09T02:37:09.724Z,3.38
2024-05-09T02:40:14.749Z,4.30
2024-05-09T02:43:19.642Z,4.03
2024-05-09T02:46:21.111Z,3.85
2024-05-09T02:49:22.813Z,3.77
2024-05-09T02:52:24.288Z,5.03
2024-05-09T02:55:26.214Z,3.30
2024-05-09T02:58:27.668Z,3.90
2024-05-09T03:01:29.199Z,3.70
2024-05-09T03:04:30.861Z,5.00
2024-05-09T03:07:32.430Z,4.30
2024-05-09T03:10:36.654Z,4.50
2024-05-09T03:13:40.128Z,3.92
2024-05-09T03:16:41.622Z,4.07
2024-05-09T03:19:43.220Z,3.97
2024-05-09T03:22:46.066Z,4.18
2024-05-09T03:25:47.695Z,3.78
2024-05-09T03:28:49.249Z,3.90
2024-05-09T03:31:50.810Z,3.15
2024-05-09T03:34:52.438Z,3.63
2024-05-09T03:37:53.948Z,4.20
2024-05-09T03:40:55.514Z,5.40
2024-05-09T03:43:57.133Z,5.55
2024-05-09T03:46:58.672Z,4.45
2024-05-09T03:50:00.294Z,4.20
2024-05-09T03:53:02.083Z,6.85
2024-05-09T03:56:03.860Z,4.13
2024-05-09T03:59:05.524Z,5.82
2024-05-09T04:02:07.110Z,6.82
2024-05-09T04:05:08.735Z,26.90
2024-05-09T04:08:10.860Z,43.42
2024-05-09T04:11:12.896Z,27.83
2024-05-09T04:14:14.520Z,18.67
2024-05-09T04:17:16.095Z,11.48
2024-05-09T04:20:28.731Z,14.97
2024-05-09T04:23:38.136Z,15.82
2024-05-09T04:26:39.778Z,10.80
2024-05-09T04:29:41.334Z,6.60
2024-05-09T04:32:42.943Z,9.15
2024-05-09T04:35:44.978Z,7.77
2024-05-09T04:38:46.834Z,6.28
2024-05-09T04:41:48.386Z,6.47
2024-05-09T04:44:49.918Z,6.38
2024-05-09T04:47:51.875Z,10.60
2024-05-09T04:50:53.758Z,8.00
2024-05-09T04:53:55.364Z,10.30
2024-05-09T04:56:56.809Z,5.78
2024-05-09T04:59:58.356Z,7.90
2024-05-09T05:03:00.076Z,10.40
2024-05-09T05:06:01.856Z,6.57
2024-05-09T05:09:03.413Z,5.97
2024-05-09T05:12:05.095Z,7.22
2024-05-09T05:15:06.653Z,5.20
2024-05-09T05:18:08.296Z,7.30
2024-05-09T05:21:09.865Z,6.80
2024-05-09T05:24:11.424Z,4.97
2024-05-09T05:27:12.931Z,7.05
2024-05-09T05:30:21.197Z,5.20
2024-05-09T05:33:27.132Z,9.00
2024-05-09T05:36:28.743Z,7.83
2024-05-09T05:39:30.273Z,5.15
2024-05-09T05:42:31.710Z,5.50
2024-05-09T05:45:33.253Z,7.72
2024-05-09T05:48:34.854Z,6.10
2024-05-09T05:51:36.498Z,9.87
2024-05-09T05:54:38.027Z,6.88
2024-05-09T05:57:39.486Z,8.30
2024-05-09T06:00:41.942Z,10.40
2024-05-09T06:03:44.455Z,13.75
2024-05-09T06:06:46.076Z,9.77
2024-05-09T06:09:49.084Z,15.10
2024-05-09T06:12:51.816Z,7.55
2024-05-09T06:15:53.342Z,9.07
2024-05-09T06:18:54.962Z,11.98
2024-05-09T06:21:56.665Z,39.20
2024-05-09T06:24:58.114Z,46.80
2024-05-09T06:27:59.663Z,31.02
2024-05-09T06:31:01.203Z,37.15
2024-05-09T06:34:02.832Z,27.73
2024-05-09T06:37:04.560Z,31.97
2024-05-09T06:40:07.598Z,37.78
2024-05-09T06:43:11.313Z,42.42
2024-05-09T06:46:12.887Z,42.75
2024-05-09T06:49:14.883Z,39.63
2024-05-09T06:52:16.510Z,29.50
2024-05-09T06:55:18.059Z,38.22
2024-05-09T06:58:19.566Z,39.78
2024-05-09T07:01:21.068Z,38.47
2024-05-09T07:04:22.725Z,39.53
2024-05-09T07:07:24.244Z,35.53
2024-05-09T07:10:32.458Z,38.38
2024-05-09T07:13:36.160Z,38.00
2024-05-09T07:16:37.725Z,31.60
2024-05-09T07:19:39.350Z,31.92
2024-05-09T07:22:41.041Z,27.47
2024-05-09T07:25:42.594Z,29.60
2024-05-09T07:28:44.114Z,18.83
2024-05-09T07:31:45.702Z,23.65
2024-05-09T07:34:47.240Z,27.60
2024-05-09T07:37:48.777Z,16.67
2024-05-09T07:40:50.424Z,17.20
2024-05-09T07:43:52.006Z,16.13
2024-05-09T07:48:13.692Z,18.90
2024-05-09T07:53:38.440Z,13.80
2024-05-09T07:56:41.161Z,10.50
2024-05-09T07:59:42.772Z,15.38
2024-05-09T08:02:44.266Z,11.85
2024-05-09T08:05:45.968Z,11.02
2024-05-09T08:08:47.543Z,10.90
2024-05-09T08:11:49.146Z,18.73
2024-05-09T08:14:50.640Z,14.88
2024-05-09T08:17:52.302Z,10.13
2024-05-09T08:20:53.893Z,12.35
2024-05-09T08:23:55.363Z,13.00
2024-05-09T08:26:56.926Z,15.63
2024-05-09T08:29:58.459Z,10.95
2024-05-09T08:33:00.079Z,13.05
2024-05-09T08:36:01.638Z,10.02
2024-05-09T08:39:03.168Z,12.07
2024-05-09T08:42:04.632Z,14.60
2024-05-09T08:45:06.162Z,10.93
2024-05-09T08:48:07.971Z,8.82
2024-05-09T08:51:09.598Z,6.88
2024-05-09T08:54:11.134Z,11.87
2024-05-09T08:57:12.695Z,11.02
2024-05-09T09:00:18.133Z,5.53
2024-05-09T09:03:27.137Z,9.85
2024-05-09T09:06:28.780Z,9.25
2024-05-09T09:09:30.483Z,8.47
2024-05-09T09:12:32.004Z,9.35
2024-05-09T09:15:34.721Z,6.95
2024-05-09T09:18:36.383Z,8.98
2024-05-09T09:21:38.002Z,15.13
2024-05-09T09:24:39.601Z,18.47
2024-05-09T09:27:41.116Z,9.68
2024-05-09T09:30:42.791Z,11.68
2024-05-09T09:33:44.641Z,9.23
2024-05-09T09:36:46.223Z,7.97
2024-05-09T09:39:49.259Z,8.37
2024-05-09T09:42:50.928Z,9.30
2024-05-09T09:45:53.361Z,8.52
2024-05-09T09:48:55.460Z,8.27
2024-05-09T09:51:57.134Z,7.18
2024-05-09T09:54:58.650Z,8.13
2024-05-09T09:58:00.206Z,10.20
2024-05-09T10:01:01.841Z,9.27
2024-05-09T10:04:03.612Z,11.77
2024-05-09T10:07:05.196Z,9.55
2024-05-09T10:10:07.096Z,5.43
2024-05-09T10:13:09.017Z,6.78
2024-05-09T10:16:10.989Z,6.55
2024-05-09T10:19:12.783Z,8.82
2024-05-09T10:22:14.647Z,7.05
2024-05-09T10:25:16.311Z,9.20
2024-05-09T10:28:17.755Z,8.93
2024-05-09T10:31:19.353Z,10.90
2024-05-09T10:34:21.023Z,7.32
2024-05-09T10:37:22.762Z,10.23
2024-05-09T10:40:29.401Z,8.60
2024-05-09T10:43:33.191Z,9.55
2024-05-09T10:46:34.655Z,9.18
2024-05-09T10:49:36.181Z,13.77
2024-05-09T10:52:37.752Z,8.00
2024-05-09T10:55:39.297Z,6.17
2024-05-09T10:58:40.827Z,5.85
2024-05-09T11:01:42.423Z,9.80
2024-05-09T11:04:44.051Z,8.43
2024-05-09T11:07:45.620Z,10.68
2024-05-09T11:10:47.265Z,7.10
2024-05-09T11:13:48.904Z,14.00
2024-05-09T11:16:50.369Z,10.20
2024-05-09T11:19:52.024Z,6.43
2024-05-09T11:22:53.517Z,9.32
2024-05-09T11:25:55.053Z,7.73
2024-05-09T11:28:56.561Z,8.77
2024-05-09T11:31:58.106Z,26.40
2024-05-09T11:35:00.258Z,44.95
2024-05-09T11:38:01.775Z,46.72
2024-05-09T11:41:03.231Z,30.60
2024-05-09T11:44:04.798Z,30.98
2024-05-09T11:47:06.372Z,19.60
2024-05-09T11:50:08.204Z,20.33
2024-05-09T11:53:11.770Z,22.75
2024-05-09T11:56:13.227Z,18.40
2024-05-09T11:59:14.760Z,14.05
2024-05-09T12:02:16.608Z,16.42
2024-05-09T12:05:18.726Z,15.55
2024-05-09T12:08:20.440Z,11.73
2024-05-09T12:11:23.230Z,10.30
2024-05-09T12:14:24.779Z,14.18
2024-05-09T12:17:26.505Z,15.15
2024-05-09T12:20:35.454Z,9.35
2024-05-09T12:23:40.003Z,17.73
2024-05-09T12:26:41.523Z,22.13
2024-05-09T12:29:42.982Z,15.75
2024-05-09T12:32:44.699Z,42.05
2024-05-09T12:35:48.182Z,51.00
2024-05-09T12:38:51.646Z,20.40
2024-05-09T12:41:53.114Z,16.17
2024-05-09T12:44:55.292Z,8.98
2024-05-09T12:47:56.914Z,9.15
2024-05-09T12:50:58.491Z,9.57
2024-05-09T12:54:00.040Z,8.93
2024-05-09T12:57:01.466Z,7.90
2024-05-09T13:00:04.101Z,11.48
2024-05-09T13:03:05.911Z,12.23
2024-05-09T13:06:07.452Z,7.50
2024-05-09T13:09:09.389Z,6.65
2024-05-09T13:12:10.936Z,8.87
2024-05-09T13:15:12.482Z,11.55
2024-05-09T13:18:14.090Z,6.80
2024-05-09T13:21:15.650Z,8.07
2024-05-09T13:24:17.097Z,22.38
2024-05-09T13:27:18.627Z,29.07
2024-05-09T13:30:28.801Z,16.70
2024-05-09T13:33:37.069Z,16.23
2024-05-09T13:36:38.760Z,13.18
2024-05-09T13:39:40.319Z,14.20
2024-05-09T13:42:41.925Z,12.93
2024-05-09T13:45:43.555Z,9.93
2024-05-09T13:48:45.210Z,10.10
2024-05-09T13:51:46.872Z,13.90
2024-05-09T13:54:48.471Z,12.13
2024-05-09T13:57:49.999Z,13.07
2024-05-09T14:00:51.729Z,13.57
2024-05-09T14:03:53.591Z,12.10
2024-05-09T14:06:55.192Z,9.85
2024-05-09T14:09:56.732Z,7.68
2024-05-09T14:12:58.313Z,12.60
2024-05-09T14:15:59.969Z,14.02
2024-05-09T14:19:01.685Z,7.22
2024-05-09T14:22:03.320Z,12.32
2024-05-09T14:25:04.805Z,10.52
2024-05-09T14:28:06.395Z,14.07
2024-05-09T14:31:08.574Z,12.27
2024-05-09T14:34:10.361Z,15.93
2024-05-09T14:37:12.156Z,12.02
2024-05-09T14:40:26.298Z,9.98
2024-05-09T14:43:35.142Z,9.07
2024-05-09T14:46:36.605Z,7.22
2024-05-09T14:49:38.239Z,23.55
2024-05-09T14:52:39.752Z,45.83
2024-05-09T14:55:42.781Z,51.80
2024-05-09T14:58:45.202Z,66.73
2024-05-09T15:01:46.748Z,67.00
2024-05-09T15:04:48.431Z,90.95
2024-05-09T15:07:50.085Z,70.75
2024-05-09T15:10:51.907Z,64.90
2024-05-09T15:13:53.865Z,38.90
2024-05-09T15:16:55.310Z,46.95
2024-05-09T15:19:56.981Z,39.05
2024-05-09T15:22:58.539Z,31.92
2024-05-09T15:26:00.002Z,41.35
2024-05-09T15:29:01.532Z,21.97
2024-05-09T15:32:03.091Z,29.23
2024-05-09T15:35:04.810Z,20.42
2024-05-09T15:38:06.326Z,14.13
2024-05-09T15:41:07.791Z,17.85
2024-05-09T15:44:09.433Z,20.77
2024-05-09T15:47:10.937Z,19.90
2024-05-09T15:50:20.088Z,15.02
2024-05-09T15:53:25.504Z,10.10
2024-05-09T15:56:27.026Z,8.45
2024-05-09T15:59:28.592Z,12.70
2024-05-09T16:02:30.276Z,12.02
2024-05-09T16:05:31.979Z,9.10
2024-05-09T16:08:33.556Z,10.10
2024-05-09T16:11:35.183Z,13.43
2024-05-09T16:14:36.698Z,8.53
2024-05-09T16:17:38.205Z,9.95
2024-05-09T16:20:42.155Z,8.65
2024-05-09T16:23:44.993Z,11.10
2024-05-09T16:26:46.508Z,16.20
2024-05-09T16:29:48.110Z,11.77
2024-05-09T16:32:50.011Z,12.63
2024-05-09T16:35:51.544Z,8.52
2024-05-09T16:38:53.051Z,11.73
2024-05-09T16:41:54.490Z,12.73
2024-05-09T16:44:56.013Z,9.97
2024-05-09T16:47:57.688Z,10.13
2024-05-09T16:50:59.227Z,10.75
2024-05-09T16:54:00.756Z,12.20
2024-05-09T16:57:02.283Z,10.35
2024-05-09T17:00:09.246Z,11.77
2024-05-09T17:03:14.702Z,9.30
2024-05-09T17:06:17.277Z,7.78
2024-05-09T17:09:20.074Z,9.63
2024-05-09T17:12:21.854Z,8.18
2024-05-09T17:15:23.455Z,8.47
2024-05-09T17:18:25.032Z,8.10
2024-05-09T17:21:26.644Z,5.40
2024-05-09T17:24:28.189Z,6.45
2024-05-09T17:27:29.763Z,8.57
2024-05-09T17:30:35.650Z,6.90
2024-05-09T17:33:39.197Z,7.60
2024-05-09T17:36:40.795Z,8.32
2024-05-09T17:39:42.465Z,6.90
2024-05-09T17:42:44.067Z,6.40
2024-05-09T17:45:45.654Z,8.47
2024-05-09T17:48:47.303Z,9.23
2024-05-09T17:51:48.865Z,5.57
2024-05-09T17:54:50.454Z,4.50
2024-05-09T17:57:52.042Z,6.75
2024-05-09T18:00:53.628Z,6.17
2024-05-09T18:03:55.415Z,5.22
2024-05-09T18:06:57.026Z,10.25
2024-05-09T18:09:58.637Z,4.97
2024-05-09T18:13:00.407Z,5.57
2024-05-09T18:16:02.017Z,7.03
2024-05-09T18:19:03.721Z,4.75
2024-05-09T18:22:05.355Z,6.25
2024-05-09T18:25:07.169Z,6.47
2024-05-09T18:28:08.965Z,4.30
2024-05-09T18:31:10.753Z,4.30
2024-05-09T18:34:12.358Z,7.15
2024-05-09T18:37:14.370Z,6.65
2024-05-09T18:40:24.818Z,7.40
2024-05-09T18:43:38.490Z,6.30
2024-05-09T18:46:46.664Z,5.10
2024-05-09T18:49:48.770Z,5.22
2024-05-09T18:52:50.890Z,4.78
2024-05-09T18:55:52.919Z,5.80
2024-05-09T18:58:55.356Z,5.03
2024-05-09T19:01:57.521Z,7.23
2024-05-09T19:04:59.936Z,5.90
2024-05-09T19:08:02.131Z,5.95
2024-05-09T19:11:04.327Z,6.80
2024-05-09T19:14:06.802Z,4.13
2024-05-09T19:17:08.545Z,4.37
2024-05-09T19:20:20.531Z,5.43
2024-05-09T19:23:38.026Z,3.85
2024-05-09T19:26:41.801Z,5.78
2024-05-09T19:29:47.942Z,7.35
2024-05-09T19:32:50.022Z,5.90
2024-05-09T19:35:53.453Z,3.90
2024-05-09T19:38:55.299Z,4.50
2024-05-09T19:41:57.039Z,3.78
2024-05-09T19:44:59.098Z,5.00
2024-05-09T19:48:01.344Z,5.77
2024-05-09T19:51:03.789Z,4.18
2024-05-09T19:54:05.832Z,4.28
2024-05-09T19:57:07.987Z,4.13
2024-05-09T20:00:15.010Z,3.78
2024-05-09T20:03:23.943Z,5.53
2024-05-09T20:06:25.595Z,6.68
2024-05-09T20:09:27.752Z,5.07
2024-05-09T20:12:32.851Z,4.18
2024-05-09T20:15:35.991Z,4.82
2024-05-09T20:18:38.804Z,4.60
2024-05-09T20:21:40.754Z,4.38
2024-05-09T20:24:42.973Z,4.40
2024-05-09T20:27:46.029Z,5.05
2024-05-09T20:30:48.259Z,3.60
2024-05-09T20:33:50.265Z,3.97
2024-05-09T20:36:51.991Z,3.90
2024-05-09T20:39:53.873Z,4.60
2024-05-09T20:42:55.530Z,5.28
2024-05-09T20:45:57.592Z,4.32
2024-05-09T20:48:59.772Z,4.43
2024-05-09T20:52:01.524Z,3.60
2024-05-09T20:55:03.045Z,5.13
2024-05-09T20:58:04.859Z,4.18
2024-05-09T21:01:06.561Z,3.72
2024-05-09T21:04:08.509Z,4.53
2024-05-09T21:07:10.281Z,4.57
2024-05-09T21:10:15.898Z,5.70
2024-05-09T21:13:23.779Z,3.90
2024-05-09T21:16:25.966Z,5.53
2024-05-09T21:19:27.652Z,5.20
2024-05-09T21:22:29.169Z,3.50
2024-05-09T21:25:30.638Z,3.45
2024-05-09T21:28:32.307Z,3.25
2024-05-09T21:31:33.888Z,4.38
2024-05-09T21:34:35.429Z,4.43
2024-05-09T21:37:36.989Z,4.22
2024-05-09T21:40:38.763Z,4.05
2024-05-09T21:43:40.430Z,3.70
2024-05-09T21:46:42.025Z,3.72
2024-05-09T21:49:43.638Z,3.80
2024-05-09T21:52:45.121Z,3.50
2024-05-09T21:55:46.644Z,3.70
2024-05-09T21:58:48.148Z,5.25
2024-05-09T22:01:49.785Z,4.85
2024-05-09T22:04:51.662Z,7.13
2024-05-09T22:07:53.178Z,4.93
2024-05-09T22:10:54.831Z,3.95
2024-05-09T22:13:56.333Z,4.97
2024-05-09T22:16:57.904Z,3.72
2024-05-09T22:19:59.378Z,4.90
2024-05-09T22:23:00.891Z,3.50
2024-05-09T22:26:02.386Z,4.45
2024-05-09T22:29:03.850Z,4.13
2024-05-09T22:32:05.365Z,4.50
2024-05-09T22:35:06.859Z,4.57
2024-05-09T22:38:08.541Z,3.53
2024-05-09T22:41:10.221Z,3.50
2024-05-09T22:44:11.780Z,3.85
2024-05-09T22:47:13.270Z,3.70
2024-05-09T22:50:18.668Z,4.70
2024-05-09T22:53:27.440Z,5.28
2024-05-09T22:56:28.906Z,3.15
2024-05-09T22:59:30.421Z,3.40
2024-05-09T23:02:31.966Z,4.90
2024-05-09T23:05:33.578Z,3.77
2024-05-09T23:08:35.133Z,4.07
2024-05-09T23:11:36.624Z,4.00
2024-05-09T23:14:38.170Z,4.55
2024-05-09T23:17:39.733Z,3.63
2024-05-09T23:20:41.853Z,3.87
2024-05-09T23:23:43.319Z,4.38
2024-05-09T23:26:44.839Z,4.30
2024-05-09T23:29:46.349Z,3.60
2024-05-09T23:32:47.926Z,3.85
2024-05-09T23:35:49.480Z,4.03
2024-05-09T23:38:50.925Z,5.35
2024-05-09T23:41:52.419Z,3.47
2024-05-09T23:44:53.901Z,4.32
2024-05-09T23:47:55.590Z,3.22
2024-05-09T23:50:57.100Z,3.37
2024-05-09T23:53:58.611Z,6.38
2024-05-09T23:57:00.413Z,3.80
